Stations météo

Publicité
Mont Aigoual, France (7560): Température de l'air & dewpoint: 24.03.2017 14:00:00 - 30.03.2017 14:00:00 (CEST)Mont Aigoual, France (7560): Vitesse du vent & gusts: 24.03.2017 14:00:00 - 30.03.2017 14:00:00 (CEST)Mont Aigoual, France (7560): Direction du vent: 24.03.2017 14:00:00 - 30.03.2017 14:00:00 (CEST)Mont Aigoual, France (7560): visibility: 24.03.2017 14:00:00 - 30.03.2017 14:00:00 (CEST)Mont Aigoual, France (7560): Quantités de précipitations: 24.03.2017 14:00:00 - 30.03.2017 14:00:00 (CEST)
Date & Time tt [°C] td [°C] ff [km/h] ff [knt] fx [km/h] fx [knt] dd vv [km] rr [mm]
30.03.2017 14:00:00 10,4 -0,7 39 21 63 34 S 20 0,0
30.03.2017 13:00:00 9,8 -2,2 39 21 58 31 S 20 0,0
30.03.2017 12:00:00 9,7 -1,4 35 19 52 28 S 20 0,0
30.03.2017 11:00:00 8,9 -0,2 31 17 46 25 S 20 0,0
30.03.2017 10:00:00 8,7 0,2 26 14 36 20 S 20 0,0
30.03.2017 09:00:00 7,6 0,1 21 12 24 13 S 20 0,0
30.03.2017 08:00:00 6,7 -0,1 11 6 13 7 S 20 0,0
30.03.2017 07:00:00 6,8 -0,2 3 2 11 6 S 20 0,0
30.03.2017 06:00:00 6,9 -0,3 9 5 13 7 NNE 20 0,0
30.03.2017 05:00:00 7,2 -0,3 12 7 14 8 N 20 0,0
30.03.2017 04:00:00 6,9 -0,3 8 5 10 5 NNW 20 0,0
30.03.2017 03:00:00 6,9 0,3 2 1 8 4 S 20 0,0
30.03.2017 02:00:00 6,9 0,3 6 3 10 5 S 20 0,0
30.03.2017 01:00:00 7,2 -0,3 9 5 10 6 S 20 0,0
30.03.2017 00:00:00 7,3 -0,2 9 5 10 6 SSE 20 0,0
29.03.2017 23:00:00 7,4 0,1 10 5 16 9 SSE 20 0,0
29.03.2017 22:00:00 7,7 0,2 11 6 15 8 ESE 20 0,0
29.03.2017 21:00:00 8,5 0,2 10 5 18 10 SSE 20 0,0
29.03.2017 20:00:00 9,2 0,4 14 8 20 11 SSE 20 0,0
29.03.2017 19:00:00 11,0 0,4 13 7 25 13 SSE 20 0,0
29.03.2017 18:00:00 12,3 0,1 14 7 31 17 S 20 0,0
29.03.2017 17:00:00 12,5 -1,1 16 9 30 16 S 20 0,0
29.03.2017 16:00:00 12,4 -1,2 16 9 32 17 S 20 0,0
29.03.2017 15:00:00 11,8 -1,4 12 7 29 16 SSW 20 0,0
29.03.2017 14:00:00 11,0 -0,8 13 7 28 15 S 20 0,0
29.03.2017 13:00:00 10,0 -2,0 5 3 26 14 ENE 20 0,0
29.03.2017 12:00:00 8,6 -2,4 14 8 30 16 N 20 0,0
29.03.2017 11:00:00 7,7 -2,6 14 7 34 18 NNE 20 0,0
29.03.2017 10:00:00 6,4 -2,2 16 9 36 20 NNE 20 0,0
29.03.2017 09:00:00 5,1 -2,0 24 13 44 24 NNE 20 0,0
29.03.2017 08:00:00 4,2 -2,2 29 15 41 22 N 20 0,0
29.03.2017 07:00:00 3,1 -0,7 31 17 40 22 N 20 0,0
29.03.2017 06:00:00 3,7 -0,5 32 17 61 33 N 20 0,0
29.03.2017 05:00:00 3,9 -0,1 45 24 65 35 N 20 0,0
29.03.2017 04:00:00 3,9 0,4 42 23 58 31 N 20 0,0
29.03.2017 03:00:00 4,5 0,1 34 19 52 28 N 20 0,0
29.03.2017 02:00:00 4,3 -0,1 30 16 39 21 N 20 0,0
29.03.2017 01:00:00 4,4 0,2 28 15 48 26 N 20 0,0
29.03.2017 00:00:00 4,8 0,6 36 20 51 28 N 20 0,0
28.03.2017 23:00:00 4,8 0,9 37 20 53 29 N 20 0,0
28.03.2017 22:00:00 4,7 1,4 39 21 54 29 NNW 20 0,0
28.03.2017 21:00:00 5,1 1,0 36 19 49 26 NNW 20 0,0
28.03.2017 20:00:00 6,3 1,2 29 16 45 25 NNW 20 0,0
28.03.2017 19:00:00 7,8 -0,9 24 13 37 20 NW 20 0,0
28.03.2017 18:00:00 8,1 -0,2 23 12 36 19 NW 20 0,0
28.03.2017 17:00:00 8,1 -0,9 18 10 39 21 N 20 0,0
28.03.2017 16:00:00 7,7 -1,3 18 10 39 21 NW 20 0,0
28.03.2017 15:00:00 9,0 -0,6 8 4 34 18 N 20 0,0
28.03.2017 14:00:00 8,2 -1,6 9 5 31 17 W 20 0,0
28.03.2017 13:00:00 7,2 -2,0 13 7 29 16 NW 20 0,0
28.03.2017 12:00:00 6,5 -4,9 10 6 19 10 NW 20 0,0
28.03.2017 11:00:00 5,9 -6,7 7 4 23 12 WSW 20 0,0
28.03.2017 10:00:00 4,6 -7,5 16 9 32 17 S 20 0,0
28.03.2017 09:00:00 3,5 -8,5 21 11 39 21 SSW 20 0,0
28.03.2017 08:00:00 2,6 -9,4 29 15 38 20 S 20 0,0
28.03.2017 07:00:00 2,4 -7,0 30 16 47 25 SSW 20 0,0
28.03.2017 06:00:00 2,1 -5,5 29 16 42 23 SSW 20 0,0
28.03.2017 05:00:00 2,1 -4,0 32 17 48 26 SSW 20 0,0
28.03.2017 04:00:00 2,6 -2,5 29 16 61 33 S 20 0,0
28.03.2017 03:00:00 2,3 -1,5 29 16 55 30 S 20 0,0
28.03.2017 02:00:00 2,6 -1,6 36 19 78 42 S 20 0,0
28.03.2017 01:00:00 2,4 -1,8 40 21 72 39 S 20 0,0
28.03.2017 00:00:00 2,6 -2,3 48 26 75 40 S 20 0,0
27.03.2017 23:00:00 2,1 -1,3 40 22 76 41 S 20 0,0
27.03.2017 22:00:00 1,8 -0,1 27 14 47 25 S 20 0,0
27.03.2017 21:00:00 1,7 0,7 34 18 50 27 S 20 0,0
27.03.2017 20:00:00 2,0 1,7 35 19 46 25 S 0,2 0,0
27.03.2017 19:00:00 2,5 1,9 33 18 53 29 S 1,5 0,0
27.03.2017 18:00:00 3,0 2,0 42 23 60 33 S 14 0,0
27.03.2017 17:00:00 3,1 1,6 39 21 64 34 S 20 0,0
27.03.2017 16:00:00 2,9 2,3 31 17 71 38 S 0,2 0,0
27.03.2017 15:00:00 3,3 2,0 46 25 74 40 S 18 0,0
27.03.2017 14:00:00 2,5 1,6 50 27 84 45 S 20 0,0
27.03.2017 13:00:00 2,0 1,9 47 25 71 38 S 0,4 0,0
27.03.2017 12:00:00 1,4 1,3 49 27 74 40 S 0,1 0,0
27.03.2017 11:00:00 1,2 1,1 53 28 73 39 S - 0,0
27.03.2017 10:00:00 1,2 1,1 46 25 68 37 S - 0,0
27.03.2017 09:00:00 1,0 0,9 41 22 72 39 S - 0,0
27.03.2017 08:00:00 1,1 1,0 48 26 72 39 SSE - 0,0
27.03.2017 07:00:00 0,9 0,8 35 19 52 28 SSE - 0,0
27.03.2017 06:00:00 0,9 0,6 26 14 42 23 SSE - 0,0
27.03.2017 05:00:00 0,9 -0,4 28 15 41 22 SE 20 0,0
27.03.2017 04:00:00 1,3 -0,9 26 14 43 23 SE 20 0,0
27.03.2017 03:00:00 1,6 -1,3 26 14 35 19 ESE 20 0,0
27.03.2017 02:00:00 2,5 -2,2 23 13 29 16 E 20 0,0
27.03.2017 01:00:00 2,7 -2,0 21 11 29 16 E 20 0,0
27.03.2017 00:00:00 2,1 0,0 26 14 30 16 NE 20 0,0
26.03.2017 23:00:00 2,2 1,9 20 11 32 17 ENE 0,1 0,0
26.03.2017 22:00:00 2,5 2,2 15 8 27 15 ESE 0,1 0,0
26.03.2017 21:00:00 3,2 1,1 11 6 17 9 ENE 20 0,0
26.03.2017 20:00:00 3,7 1,6 10 6 18 10 N 20 0,2
26.03.2017 19:00:00 4,4 2,6 4 2 12 7 NE 20 0,0
26.03.2017 18:00:00 4,5 3,3 5 3 14 8 N 20 0,0
26.03.2017 17:00:00 3,9 3,6 5 3 21 11 SSE 20 0,0
26.03.2017 16:00:00 3,7 3,6 11 6 26 14 S 20 0,0
26.03.2017 15:00:00 2,8 2,7 13 7 30 16 S 20 0,0
26.03.2017 14:00:00 2,0 1,9 23 12 36 20 S 0,1 0,0
26.03.2017 13:00:00 0,9 0,8 22 12 40 21 S 0,1 0,0
26.03.2017 12:00:00 0,3 0,2 24 13 41 22 S 0,1 0,0
26.03.2017 11:00:00 0,0 -0,1 29 16 44 24 S 0,1 0,0
26.03.2017 10:00:00 0,0 -0,1 24 13 43 23 S - 0,0
26.03.2017 09:00:00 -0,2 -0,3 24 13 39 21 S - 0,0
26.03.2017 08:00:00 -0,3 -0,4 29 15 46 25 SSE 0,1 0,0
26.03.2017 07:00:00 -0,4 -0,5 31 17 53 28 S - 0,8
26.03.2017 06:00:00 -0,4 -0,5 36 19 68 37 S - 0,0
26.03.2017 05:00:00 -0,6 -0,7 45 24 63 34 S - 0,4
26.03.2017 04:00:00 -0,8 -0,9 45 24 72 39 S - 0,4
26.03.2017 03:00:00 -0,6 -0,7 40 22 71 39 S - 0,2
26.03.2017 02:00:00 -0,7 -0,8 37 20 71 38 S - 1,8
26.03.2017 01:00:00 -0,6 -0,7 39 21 77 41 S 0,1 0,2
26.03.2017 00:00:00 -0,2 -0,3 45 24 76 41 S - 0,0
25.03.2017 23:00:00 -0,1 -0,2 39 21 71 38 S - 0,0
25.03.2017 22:00:00 -0,1 -0,2 49 27 81 44 S - 0,0
25.03.2017 21:00:00 0,0 -0,1 51 27 80 43 S - 0,2
25.03.2017 20:00:00 0,1 0,0 37 20 74 40 S - 0,0
25.03.2017 19:00:00 0,1 0,0 40 21 72 39 S - 0,0
25.03.2017 18:00:00 -0,1 -0,2 40 21 68 37 S - 0,0
25.03.2017 17:00:00 -0,3 -0,4 30 16 70 38 S - 0,0
25.03.2017 16:00:00 -0,6 -0,7 40 22 74 40 S 0,1 0,0
25.03.2017 15:00:00 -0,7 -0,8 49 27 99 53 S 0,1 0,0
25.03.2017 14:00:00 -0,7 -0,8 50 27 101 54 S - 0,0
25.03.2017 13:00:00 -0,2 -0,3 65 35 114 62 S 0,1 0,2
25.03.2017 12:00:00 0,3 0,2 67 36 122 66 S - 5,0
25.03.2017 11:00:00 0,3 0,0 69 37 140 76 S 0,1 7,7
25.03.2017 10:00:00 2,9 2,6 35 19 101 54 SE - 0,2
25.03.2017 09:00:00 3,1 2,7 47 25 114 62 SSE 0,7 0,0
25.03.2017 08:00:00 3,2 2,3 41 22 95 51 SSE 10 0,0
25.03.2017 07:00:00 3,2 1,4 35 19 92 50 SSE 19 0,0
25.03.2017 06:00:00 3,2 1,9 32 17 84 45 SE 16 0,0
25.03.2017 05:00:00 3,1 2,4 27 15 87 47 SE 7 0,0
25.03.2017 04:00:00 3,5 2,6 39 21 89 48 SSE 15 0,0
25.03.2017 03:00:00 3,4 2,7 29 16 70 38 SSE 15 0,0
25.03.2017 02:00:00 3,7 2,4 37 20 89 48 SSE 20 0,0
25.03.2017 01:00:00 3,5 2,9 42 23 88 47 SSE 19 0,0
25.03.2017 00:00:00 3,5 3,1 36 19 83 45 SE 20 0,0
24.03.2017 23:00:00 3,4 3,3 37 20 85 46 SSE 0,4 0,0
24.03.2017 22:00:00 3,0 2,9 37 20 74 40 SSE 0,3 0,0
24.03.2017 21:00:00 3,3 3,2 35 19 90 48 SSE - 0,2
24.03.2017 20:00:00 3,8 3,7 41 22 95 51 SSE - 1,4
24.03.2017 19:00:00 3,5 3,4 38 20 87 47 SSE - 6,7
24.03.2017 18:00:00 3,4 3,3 23 13 61 33 ESE 0,1 6,0
24.03.2017 17:00:00 3,2 3,1 37 20 73 39 SSE 0,1 3,6
24.03.2017 16:00:00 2,9 2,8 40 22 74 40 S 0,1 4,2
24.03.2017 15:00:00 2,7 2,6 29 16 54 29 SE 0,1 3,7
24.03.2017 14:00:00 - - - - - - - - -

tt = Température de l'air
td = dewpoint
ff = Vitesse du vent
fx = gusts
dd = Direction du vent
vv = visibility
rr = Quantités de précipitations

stations d'obs. à proximité